Time;durP1;ratioP1;P1;durP2;ratioP2;P2;SDS_P1;SDS_P2;PMS_P1;PMS_P2;Temp;Humidity;BMP_temperature;BMP_pressure;BME280_temperature;BME280_humidity;BME280_pressure;Samples;Min_cycle;Max_cycle;Signal;HPM_P1;HPM_P2
2022/02/03 00:00:07;;;;;;;0.50;0.50;;;;;;;;;;5083186;28;20207;-64
2022/02/03 00:02:43;;;;;;;0.40;0.40;;;;;;;;;;5082579;28;20591;-64
2022/02/03 00:05:14;;;;;;;0.47;0.47;;;;;;;;;;5082441;28;20229;-64
2022/02/03 00:24:02;;;;;;;0.40;0.40;;;;;;;;;;5073545;28;20183;-64
2022/02/03 00:26:14;;;;;;;0.40;0.40;;;;;;;;;;5072881;28;20182;-64
2022/02/03 00:28:47;;;;;;;0.50;0.50;;;;;;;;;;5073079;28;20285;-64
2022/02/03 00:31:34;;;;;;;0.40;0.40;;;;;;;;;;5072818;28;20191;-64
2022/02/03 00:34:10;;;;;;;0.40;0.40;;;;;;;;;;5072873;28;20187;-64
2022/02/03 00:37:03;;;;;;;0.50;0.50;;;;;;;;;;5073023;28;20178;-64
2022/02/03 00:50:31;;;;;;;0.50;0.50;;;;;;;;;;5072517;28;20182;-64
2022/02/03 00:52:58;;;;;;;0.40;0.40;;;;;;;;;;5072520;28;20182;-64
2022/02/03 00:55:24;;;;;;;0.40;0.40;;;;;;;;;;5072666;28;20588;-64
2022/02/03 00:57:51;;;;;;;0.50;0.50;;;;;;;;;;5072416;28;20325;-64
2022/02/03 01:00:18;;;;;;;0.50;0.50;;;;;;;;;;5072048;28;20453;-64
2022/02/03 01:02:45;;;;;;;0.50;0.50;;;;;;;;;;5072626;28;20175;-64
2022/02/03 01:05:13;;;;;;;0.50;0.50;;;;;;;;;;5073467;28;20175;-64
2022/02/03 01:07:43;;;;;;;0.47;0.47;;;;;;;;;;5071537;28;20259;-64
2022/02/03 01:10:17;;;;;;;0.40;0.40;;;;;;;;;;5071355;28;20187;-64
2022/02/03 01:15:22;;;;;;;0.50;0.50;;;;;;;;;;5072274;28;20217;-64
2022/02/03 01:18:06;;;;;;;0.40;0.40;;;;;;;;;;5072280;28;20205;-64
2022/02/03 01:20:57;;;;;;;0.40;0.40;;;;;;;;;;5071347;28;20293;-64
2022/02/03 01:44:57;;;;;;;0.50;0.50;;;;;;;;;;5071808;28;20178;-64
2022/02/03 01:48:20;;;;;;;0.40;0.40;;;;;;;;;;5071784;28;20170;-64
2022/02/03 01:52:39;;;;;;;0.40;0.40;;;;;;;;;;5071833;28;20324;-64
2022/02/03 01:55:10;;;;;;;0.40;0.40;;;;;;;;;;5071682;28;20700;-64
2022/02/03 01:57:42;;;;;;;0.50;0.50;;;;;;;;;;5071565;28;20197;-64
2022/02/03 02:00:09;;;;;;;0.45;0.45;;;;;;;;;;5071303;28;20211;-64
2022/02/03 02:02:38;;;;;;;0.40;0.40;;;;;;;;;;5071593;28;20289;-64
2022/02/03 02:05:04;;;;;;;0.40;0.40;;;;;;;;;;5071569;28;20242;-64
2022/02/03 02:07:46;;;;;;;0.40;0.40;;;;;;;;;;5071299;28;20763;-64
2022/02/03 02:10:53;;;;;;;0.40;0.40;;;;;;;;;;5071229;28;20408;-64
2022/02/03 02:13:47;;;;;;;0.40;0.40;;;;;;;;;;5071400;28;20179;-64
2022/02/03 02:16:42;;;;;;;0.40;0.40;;;;;;;;;;5071415;28;20170;-64
2022/02/03 02:19:26;;;;;;;0.40;0.40;;;;;;;;;;5071268;28;20622;-64
2022/02/03 02:43:56;;;;;;;0.50;0.50;;;;;;;;;;5075201;28;20536;-64
2022/02/03 02:46:27;;;;;;;0.40;0.40;;;;;;;;;;5075075;28;20192;-64
2022/02/03 02:49:08;;;;;;;0.50;0.50;;;;;;;;;;5075052;28;20191;-64
2022/02/03 02:51:40;;;;;;;0.40;0.40;;;;;;;;;;5074814;28;20167;-64
2022/02/03 02:54:29;;;;;;;0.45;0.45;;;;;;;;;;5075015;28;20198;-64
2022/02/03 03:00:03;;;;;;;0.40;0.40;;;;;;;;;;5074936;28;20211;-64
2022/02/03 03:35:48;;;;;;;0.50;0.50;;;;;;;;;;5074458;28;20274;-64
2022/02/03 03:38:17;;;;;;;0.47;0.47;;;;;;;;;;5073843;28;20183;-64
2022/02/03 03:40:47;;;;;;;0.50;0.50;;;;;;;;;;5073857;28;20203;-64
2022/02/03 03:43:19;;;;;;;0.40;0.40;;;;;;;;;;5073475;28;20723;-64
2022/02/03 03:45:50;;;;;;;0.50;0.50;;;;;;;;;;5073968;28;20182;-64
2022/02/03 03:48:17;;;;;;;0.50;0.50;;;;;;;;;;5073833;28;20194;-64
2022/02/03 03:50:46;;;;;;;0.50;0.50;;;;;;;;;;5073464;28;20195;-64
2022/02/03 03:53:20;;;;;;;0.40;0.40;;;;;;;;;;5073840;28;20169;-64
2022/02/03 03:55:59;;;;;;;0.40;0.40;;;;;;;;;;5073990;28;20256;-64
2022/02/03 04:28:59;;;;;;;0.50;0.50;;;;;;;;;;5073598;28;20266;-64
2022/02/03 04:30:07;;;;;;;0.40;0.40;;;;;;;;;;5073228;28;20218;-64
2022/02/03 04:35:57;;;;;;;0.40;0.40;;;;;;;;;;5073298;28;20186;-64
2022/02/03 05:01:40;;;;;;;0.50;0.50;;;;;;;;;;5072563;28;20193;-64
2022/02/03 05:04:27;;;;;;;0.50;0.50;;;;;;;;;;5071848;28;20545;-64
2022/02/03 05:07:35;;;;;;;0.50;0.50;;;;;;;;;;5072441;28;20233;-64
2022/02/03 05:10:11;;;;;;;0.50;0.50;;;;;;;;;;5072255;28;20182;-64
2022/02/03 05:15:57;;;;;;;0.45;0.45;;;;;;;;;;5072372;28;20178;-63
2022/02/03 05:18:56;;;;;;;0.40;0.40;;;;;;;;;;5071969;28;20195;-64
2022/02/03 05:25:14;;;;;;;0.40;0.40;;;;;;;;;;5072094;28;20171;-64
2022/02/03 05:34:18;;;;;;;0.50;0.50;;;;;;;;;;5072118;28;20240;-63
2022/02/03 06:03:53;;;;;;;0.50;0.50;;;;;;;;;;5071642;28;20207;-64
2022/02/03 06:09:21;;;;;;;0.50;0.50;;;;;;;;;;5071391;28;20302;-64
2022/02/03 06:12:31;;;;;;;0.50;0.50;;;;;;;;;;5071418;28;20183;-64
2022/02/03 06:15:04;;;;;;;0.50;0.50;;;;;;;;;;5071283;28;20676;-64
2022/02/03 06:17:49;;;;;;;0.50;0.50;;;;;;;;;;5071471;28;20219;-63
2022/02/03 06:23:07;;;;;;;0.50;0.50;;;;;;;;;;5070652;28;20564;-63
2022/02/03 06:28:17;;;;;;;0.50;0.50;;;;;;;;;;5071239;28;20324;-65
2022/02/03 06:30:43;;;;;;;0.50;0.50;;;;;;;;;;5071139;28;20190;-62
2022/02/03 06:33:09;;;;;;;0.50;0.50;;;;;;;;;;5071111;28;20626;-65
2022/02/03 06:35:35;;;;;;;0.45;0.45;;;;;;;;;;5071172;28;20398;-62
2022/02/03 06:38:01;;;;;;;0.50;0.50;;;;;;;;;;5071127;28;20197;-63
2022/02/03 06:40:27;;;;;;;0.40;0.40;;;;;;;;;;5070901;28;20831;-63
2022/02/03 06:42:56;;;;;;;0.50;0.50;;;;;;;;;;5071233;28;20913;-63
2022/02/03 06:45:41;;;;;;;0.40;0.40;;;;;;;;;;5071110;28;20930;-63
2022/02/03 06:48:13;;;;;;;0.50;0.50;;;;;;;;;;5071339;28;20273;-65
2022/02/03 06:50:45;;;;;;;0.50;0.50;;;;;;;;;;5071083;28;20199;-64
2022/02/03 06:53:18;;;;;;;0.40;0.40;;;;;;;;;;5069868;28;20168;-63
2022/02/03 06:58:31;;;;;;;0.50;0.50;;;;;;;;;;5074495;28;20196;-63
2022/02/03 07:01:06;;;;;;;0.50;0.50;;;;;;;;;;5070803;28;20910;-63
2022/02/03 07:03:37;;;;;;;0.50;0.50;;;;;;;;;;5074964;28;20657;-63
2022/02/03 07:06:03;;;;;;;0.50;0.50;;;;;;;;;;5072645;28;20179;-62
2022/02/03 07:08:31;;;;;;;0.40;0.40;;;;;;;;;;5086406;28;20210;-63
2022/02/03 07:10:57;;;;;;;0.50;0.50;;;;;;;;;;5070561;28;20719;-64
2022/02/03 07:13:24;;;;;;;0.50;0.50;;;;;;;;;;5072716;28;20186;-63
2022/02/03 07:15:49;;;;;;;0.50;0.50;;;;;;;;;;5078835;28;20231;-62
2022/02/03 07:18:17;;;;;;;0.40;0.40;;;;;;;;;;5090981;28;20661;-63
2022/02/03 07:20:43;;;;;;;0.50;0.50;;;;;;;;;;5082376;28;20402;-62
2022/02/03 07:23:09;;;;;;;0.40;0.40;;;;;;;;;;5074315;28;20179;-62
2022/02/03 07:25:36;;;;;;;0.50;0.50;;;;;;;;;;5081433;28;20190;-62
2022/02/03 07:28:02;;;;;;;0.40;0.40;;;;;;;;;;5086043;28;20205;-63
2022/02/03 07:30:28;;;;;;;0.40;0.40;;;;;;;;;;5087190;28;20598;-62
2022/02/03 07:32:57;;;;;;;0.50;0.50;;;;;;;;;;5084484;28;20183;-62
2022/02/03 07:35:23;;;;;;;0.40;0.40;;;;;;;;;;5075573;28;20638;-65
2022/02/03 07:37:50;;;;;;;0.50;0.50;;;;;;;;;;5089518;28;20243;-65
2022/02/03 07:40:17;;;;;;;0.50;0.50;;;;;;;;;;5094238;28;20245;-63
2022/02/03 07:42:46;;;;;;;0.40;0.40;;;;;;;;;;5086160;28;20203;-63
2022/02/03 07:45:12;;;;;;;0.50;0.50;;;;;;;;;;5074069;28;20665;-63
2022/02/03 07:47:45;;;;;;;0.50;0.50;;;;;;;;;;5074443;28;20191;-63
2022/02/03 07:50:11;;;;;;;0.50;0.50;;;;;;;;;;5086183;28;20236;-63
2022/02/03 07:52:37;;;;;;;0.50;0.50;;;;;;;;;;5094145;28;20614;-63
2022/02/03 07:55:03;;;;;;;0.50;0.50;;;;;;;;;;5089162;28;20206;-63
2022/02/03 07:57:29;;;;;;;0.50;0.50;;;;;;;;;;5062511;28;20436;-63
2022/02/03 07:59:55;;;;;;;0.50;0.50;;;;;;;;;;5069248;28;20199;-63
2022/02/03 08:02:21;;;;;;;0.50;0.50;;;;;;;;;;5094197;28;20415;-63
2022/02/03 08:04:49;;;;;;;0.50;0.50;;;;;;;;;;5055584;28;20451;-63
2022/02/03 08:07:18;;;;;;;0.50;0.50;;;;;;;;;;5073583;28;20179;-63
2022/02/03 08:10:01;;;;;;;0.50;0.50;;;;;;;;;;5073506;28;20209;-63
2022/02/03 08:12:34;;;;;;;0.43;0.43;;;;;;;;;;5073228;28;20186;-63
2022/02/03 08:15:01;;;;;;;0.50;0.50;;;;;;;;;;5072767;28;20646;-63
2022/02/03 08:17:39;;;;;;;0.50;0.50;;;;;;;;;;5055185;28;20650;-63
2022/02/03 08:20:11;;;;;;;0.50;0.50;;;;;;;;;;5073404;28;20226;-62
2022/02/03 08:22:43;;;;;;;0.50;0.50;;;;;;;;;;5073505;28;20206;-63
2022/02/03 08:25:20;;;;;;;0.50;0.50;;;;;;;;;;5073487;28;20175;-63
2022/02/03 08:33:01;;;;;;;0.50;0.50;;;;;;;;;;5073269;28;20665;-63
2022/02/03 08:35:41;;;;;;;0.50;0.50;;;;;;;;;;5073263;28;20199;-63
2022/02/03 08:43:09;;;;;;;0.50;0.50;;;;;;;;;;5073206;28;20186;-63
2022/02/03 08:45:35;;;;;;;0.50;0.50;;;;;;;;;;5072768;28;20167;-63
2022/02/03 08:48:01;;;;;;;0.50;0.50;;;;;;;;;;5072583;28;20223;-63
2022/02/03 08:50:28;;;;;;;0.50;0.50;;;;;;;;;;5072382;28;20240;-63
2022/02/03 08:53:03;;;;;;;0.40;0.40;;;;;;;;;;5072940;28;20418;-63
2022/02/03 09:00:53;;;;;;;0.50;0.50;;;;;;;;;;5071867;28;20211;-63
2022/02/03 09:34:37;;;;;;;0.50;0.50;;;;;;;;;;5071476;28;20271;-67
2022/02/03 09:41:45;;;;;;;0.40;0.40;;;;;;;;;;5071204;28;20186;-66
2022/02/03 09:57:36;;;;;;;0.50;0.50;;;;;;;;;;5071704;28;20277;-66
2022/02/03 10:00:23;;;;;;;0.50;0.50;;;;;;;;;;5071540;28;20218;-66
2022/02/03 10:02:56;;;;;;;0.40;0.40;;;;;;;;;;5071603;28;20169;-67
2022/02/03 10:05:33;;;;;;;0.50;0.50;;;;;;;;;;5071552;28;20171;-67
2022/02/03 10:07:59;;;;;;;0.50;0.50;;;;;;;;;;5071611;28;20186;-67
2022/02/03 10:10:28;;;;;;;0.50;0.50;;;;;;;;;;5070948;28;20279;-67
2022/02/03 10:12:53;;;;;;;0.50;0.50;;;;;;;;;;5071379;28;20668;-66
2022/02/03 10:15:20;;;;;;;0.50;0.50;;;;;;;;;;5071326;28;20175;-67
2022/02/03 10:17:48;;;;;;;0.47;0.47;;;;;;;;;;5071220;28;20410;-66
2022/02/03 10:20:17;;;;;;;0.50;0.50;;;;;;;;;;5071106;28;20426;-66
2022/02/03 10:22:49;;;;;;;0.50;0.50;;;;;;;;;;5071513;28;20168;-66
2022/02/03 10:25:21;;;;;;;0.50;0.50;;;;;;;;;;5071633;28;20213;-65
2022/02/03 10:27:57;;;;;;;0.50;0.50;;;;;;;;;;5053175;28;20262;-66
2022/02/03 10:30:26;;;;;;;0.50;0.50;;;;;;;;;;5070869;28;20285;-65
2022/02/03 10:32:53;;;;;;;0.50;0.50;;;;;;;;;;5071067;28;20232;-66
2022/02/03 10:35:29;;;;;;;0.50;0.50;;;;;;;;;;5071140;28;20258;-66
2022/02/03 10:38:05;;;;;;;0.50;0.50;;;;;;;;;;5071141;28;20186;-66
2022/02/03 10:41:19;;;;;;;0.50;0.50;;;;;;;;;;5070576;28;20218;-66
2022/02/03 11:03:13;;;;;;;0.50;0.50;;;;;;;;;;4993170;28;20550;-67
2022/02/03 11:08:33;;;;;;;0.40;0.40;;;;;;;;;;5074905;28;20179;-67
2022/02/03 11:11:01;;;;;;;0.40;0.40;;;;;;;;;;5074261;28;20209;-68
2022/02/03 11:13:33;;;;;;;0.50;0.50;;;;;;;;;;5074674;28;20182;-67
2022/02/03 11:16:06;;;;;;;0.45;0.45;;;;;;;;;;5074476;28;20218;-66
2022/02/03 11:18:32;;;;;;;0.40;0.40;;;;;;;;;;5056443;28;20198;-68
2022/02/03 11:21:02;;;;;;;0.40;0.40;;;;;;;;;;5074162;28;20195;-67
2022/02/03 11:28:58;;;;;;;0.40;0.40;;;;;;;;;;5074131;28;20202;-67
2022/02/03 11:42:24;;;;;;;0.40;0.40;;;;;;;;;;5073923;28;20179;-66
2022/02/03 12:03:55;;;;;;;0.40;0.40;;;;;;;;;;5073678;28;20658;-66
2022/02/03 12:20:31;;;;;;;0.40;0.40;;;;;;;;;;5072981;28;20211;-66
2022/02/03 12:23:21;;;;;;;0.40;0.40;;;;;;;;;;5072855;28;20174;-63
2022/02/03 12:26:03;;;;;;;0.50;0.50;;;;;;;;;;5073122;28;20233;-65
2022/02/03 12:39:04;;;;;;;0.50;0.50;;;;;;;;;;5073059;28;20297;-65
2022/02/03 12:41:36;;;;;;;0.40;0.40;;;;;;;;;;5072571;28;20232;-64
2022/02/03 12:44:11;;;;;;;0.40;0.40;;;;;;;;;;5072472;28;20218;-64
2022/02/03 12:46:37;;;;;;;0.50;0.50;;;;;;;;;;5072369;28;20174;-66
2022/02/03 12:49:04;;;;;;;0.40;0.40;;;;;;;;;;5072538;28;20203;-66
2022/02/03 12:51:30;;;;;;;0.50;0.50;;;;;;;;;;5072392;28;20225;-68
2022/02/03 12:53:56;;;;;;;0.40;0.40;;;;;;;;;;5072542;28;20172;-67
2022/02/03 12:56:25;;;;;;;0.50;0.50;;;;;;;;;;5072026;28;20183;-66
2022/02/03 12:58:53;;;;;;;0.50;0.50;;;;;;;;;;5072173;28;20442;-65
2022/02/03 13:01:28;;;;;;;0.43;0.43;;;;;;;;;;5072301;28;20170;-66
2022/02/03 13:03:55;;;;;;;0.47;0.47;;;;;;;;;;5072360;28;20175;-66
2022/02/03 13:06:23;;;;;;;0.40;0.40;;;;;;;;;;5071809;28;20718;-64
2022/02/03 13:08:52;;;;;;;0.50;0.50;;;;;;;;;;5072010;28;20182;-64
2022/02/03 13:11:51;;;;;;;0.40;0.40;;;;;;;;;;5071957;28;20252;-68
2022/02/03 13:14:33;;;;;;;0.40;0.40;;;;;;;;;;5072217;28;20174;-65
2022/02/03 13:17:20;;;;;;;0.50;0.50;;;;;;;;;;5071395;28;20163;-66
2022/02/03 13:19:59;;;;;;;0.50;0.50;;;;;;;;;;5072056;28;20202;-66
2022/02/03 13:22:34;;;;;;;0.50;0.50;;;;;;;;;;5071869;28;20171;-66
2022/02/03 13:27:57;;;;;;;0.40;0.40;;;;;;;;;;5072233;28;20259;-65
2022/02/03 13:30:29;;;;;;;0.40;0.40;;;;;;;;;;5071726;28;20195;-66
2022/02/03 13:32:59;;;;;;;0.40;0.40;;;;;;;;;;5053925;28;20191;-67
2022/02/03 13:35:30;;;;;;;0.50;0.50;;;;;;;;;;5071802;28;20323;-66
2022/02/03 13:38:18;;;;;;;0.50;0.50;;;;;;;;;;5071778;28;20206;-65
2022/02/03 13:40:43;;;;;;;0.40;0.40;;;;;;;;;;5071313;28;20257;-66
2022/02/03 13:43:13;;;;;;;0.50;0.50;;;;;;;;;;5071683;28;20167;-68
2022/02/03 13:45:39;;;;;;;0.40;0.40;;;;;;;;;;5071702;28;20408;-65
2022/02/03 13:48:19;;;;;;;0.50;0.50;;;;;;;;;;5071472;28;20202;-65
2022/02/03 13:50:58;;;;;;;0.50;0.50;;;;;;;;;;5071335;28;20198;-65
2022/02/03 13:53:48;;;;;;;0.40;0.40;;;;;;;;;;5071719;28;20171;-66
2022/02/03 14:18:35;;;;;;;0.50;0.50;;;;;;;;;;5071753;28;20175;-62
2022/02/03 14:21:04;;;;;;;0.40;0.40;;;;;;;;;;5071395;28;20221;-64
2022/02/03 14:29:00;;;;;;;0.50;0.50;;;;;;;;;;5074765;28;20171;-63
2022/02/03 14:31:26;;;;;;;0.50;0.50;;;;;;;;;;5075843;28;20645;-64
2022/02/03 14:33:53;;;;;;;0.40;0.40;;;;;;;;;;5076139;28;20211;-63
2022/02/03 14:36:23;;;;;;;0.43;0.43;;;;;;;;;;5076059;28;20665;-65
2022/02/03 14:38:57;;;;;;;0.40;0.40;;;;;;;;;;5076016;28;20195;-65
2022/02/03 14:41:26;;;;;;;0.50;0.50;;;;;;;;;;5074649;28;20175;-66
2022/02/03 14:43:52;;;;;;;0.40;0.40;;;;;;;;;;5075133;28;20163;-67
2022/02/03 14:46:18;;;;;;;0.40;0.40;;;;;;;;;;5075023;28;20182;-65
2022/02/03 14:48:46;;;;;;;0.43;0.43;;;;;;;;;;5074856;28;20173;-62
2022/02/03 14:51:15;;;;;;;0.40;0.40;;;;;;;;;;5074741;28;20187;-65
2022/02/03 14:59:24;;;;;;;0.50;0.50;;;;;;;;;;5074742;28;20265;-67
2022/02/03 15:01:50;;;;;;;0.40;0.40;;;;;;;;;;5074683;28;20175;-67
2022/02/03 15:04:25;;;;;;;0.40;0.40;;;;;;;;;;5074671;28;20441;-65
2022/02/03 15:07:00;;;;;;;0.40;0.40;;;;;;;;;;5074670;28;20401;-64
2022/02/03 15:12:25;;;;;;;0.50;0.50;;;;;;;;;;5094463;28;20192;-61
2022/02/03 15:14:51;;;;;;;0.40;0.40;;;;;;;;;;5092462;28;20590;-61
2022/02/03 15:17:20;;;;;;;0.50;0.50;;;;;;;;;;5094181;28;20166;-61
2022/02/03 15:19:46;;;;;;;0.50;0.50;;;;;;;;;;5089382;28;20539;-62
2022/02/03 15:22:12;;;;;;;0.50;0.50;;;;;;;;;;5056460;28;20274;-61
2022/02/03 15:24:38;;;;;;;0.50;0.50;;;;;;;;;;5074238;28;20413;-62
2022/02/03 15:27:04;;;;;;;0.50;0.50;;;;;;;;;;5039985;28;20172;-61
2022/02/03 15:29:30;;;;;;;0.50;0.50;;;;;;;;;;5073970;28;20480;-63
2022/02/03 15:31:56;;;;;;;0.40;0.40;;;;;;;;;;5074103;28;20175;-63
2022/02/03 15:34:23;;;;;;;0.50;0.50;;;;;;;;;;5073685;28;20254;-63
2022/02/03 15:36:53;;;;;;;0.40;0.40;;;;;;;;;;5072560;28;20171;-63
2022/02/03 15:39:24;;;;;;;0.50;0.50;;;;;;;;;;5073562;28;20191;-61
2022/02/03 15:41:53;;;;;;;0.40;0.40;;;;;;;;;;5072563;28;20187;-63
2022/02/03 15:44:19;;;;;;;0.40;0.40;;;;;;;;;;5074220;28;20250;-63
2022/02/03 15:46:59;;;;;;;0.50;0.50;;;;;;;;;;5073537;28;20197;-63
2022/02/03 15:49:58;;;;;;;0.50;0.50;;;;;;;;;;5073134;28;20249;-60
2022/02/03 16:19:09;;;;;;;0.50;0.50;;;;;;;;;;5073040;28;20210;-62
2022/02/03 16:21:41;;;;;;;0.40;0.40;;;;;;;;;;5073068;28;20168;-62
2022/02/03 16:24:17;;;;;;;0.50;0.50;;;;;;;;;;5073406;28;20427;-61
2022/02/03 16:54:11;;;;;;;0.50;0.50;;;;;;;;;;5071775;28;20178;-61
2022/02/03 16:56:37;;;;;;;0.50;0.50;;;;;;;;;;5069817;28;20658;-61
2022/02/03 16:59:04;;;;;;;0.50;0.50;;;;;;;;;;5072069;28;20693;-61
2022/02/03 17:01:30;;;;;;;0.40;0.40;;;;;;;;;;5053884;28;20209;-61
2022/02/03 17:03:56;;;;;;;0.50;0.50;;;;;;;;;;5068948;28;20167;-61
2022/02/03 17:06:22;;;;;;;0.50;0.50;;;;;;;;;;5071740;28;20488;-61
2022/02/03 17:08:48;;;;;;;0.50;0.50;;;;;;;;;;5072061;28;20409;-61
2022/02/03 17:11:14;;;;;;;0.40;0.40;;;;;;;;;;5071629;28;20203;-61
2022/02/03 17:13:40;;;;;;;0.40;0.40;;;;;;;;;;5071939;28;20173;-61
2022/02/03 17:16:07;;;;;;;0.50;0.50;;;;;;;;;;5071330;28;20179;-61
2022/02/03 17:18:33;;;;;;;0.50;0.50;;;;;;;;;;5065238;28;20418;-61
2022/02/03 17:20:59;;;;;;;0.50;0.50;;;;;;;;;;5060499;28;20188;-61
2022/02/03 17:23:27;;;;;;;0.50;0.50;;;;;;;;;;5062240;28;20664;-61
2022/02/03 17:31:21;;;;;;;0.40;0.40;;;;;;;;;;5069079;28;20210;-61
2022/02/03 18:49:10;;;;;;;0.60;0.60;;;;;;;;;;5071134;28;20178;-61
2022/02/03 18:51:33;;;;;;;0.50;0.50;;;;;;;;;;5070124;28;20198;-61
2022/02/03 18:54:14;;;;;;;0.50;0.50;;;;;;;;;;5070769;28;20181;-62
2022/02/03 19:02:01;;;;;;;0.50;0.50;;;;;;;;;;5068437;28;20448;-63
2022/02/03 19:10:23;;;;;;;0.50;0.50;;;;;;;;;;5069549;28;20754;-62
2022/02/03 19:56:15;;;;;;;0.50;0.50;;;;;;;;;;5042851;28;20190;-62
2022/02/03 20:01:59;;;;;;;0.50;0.50;;;;;;;;;;5073385;28;20210;-62
2022/02/03 20:07:15;;;;;;;0.50;0.50;;;;;;;;;;5071926;28;20198;-62
2022/02/03 20:10:11;;;;;;;0.50;0.50;;;;;;;;;;5071656;28;20211;-62
2022/02/03 20:12:28;;;;;;;0.50;0.50;;;;;;;;;;5072050;28;20182;-62
2022/02/03 20:14:54;;;;;;;0.50;0.50;;;;;;;;;;5073364;28;20167;-62
2022/02/03 20:17:20;;;;;;;0.50;0.50;;;;;;;;;;5073247;28;20170;-60
2022/02/03 20:19:47;;;;;;;0.50;0.50;;;;;;;;;;5055043;28;20224;-62
2022/02/03 20:22:13;;;;;;;0.50;0.50;;;;;;;;;;5052495;28;20170;-62
2022/02/03 20:24:39;;;;;;;0.50;0.50;;;;;;;;;;5072944;28;20653;-62
2022/02/03 20:27:05;;;;;;;0.50;0.50;;;;;;;;;;5054598;28;20169;-62
2022/02/03 20:29:31;;;;;;;0.50;0.50;;;;;;;;;;5063480;28;20623;-61
2022/02/03 20:31:57;;;;;;;0.50;0.50;;;;;;;;;;5062444;28;20178;-63
2022/02/03 20:34:23;;;;;;;0.50;0.50;;;;;;;;;;5062182;28;20859;-63
2022/02/03 20:36:49;;;;;;;0.50;0.50;;;;;;;;;;5063320;28;20777;-61
2022/02/03 20:39:15;;;;;;;0.50;0.50;;;;;;;;;;5061989;28;20221;-61
2022/02/03 20:41:41;;;;;;;0.50;0.50;;;;;;;;;;5060680;28;20662;-61
2022/02/03 20:44:07;;;;;;;0.50;0.50;;;;;;;;;;5061473;28;20438;-61
2022/02/03 20:46:33;;;;;;;0.50;0.50;;;;;;;;;;5063398;28;20488;-61
2022/02/03 20:48:59;;;;;;;0.50;0.50;;;;;;;;;;5043590;28;20163;-61
2022/02/03 20:51:25;;;;;;;0.50;0.50;;;;;;;;;;5060770;28;20194;-63
2022/02/03 20:53:52;;;;;;;0.50;0.50;;;;;;;;;;5063448;28;20484;-61
2022/02/03 20:56:19;;;;;;;0.50;0.50;;;;;;;;;;5044032;28;20259;-62
2022/02/03 20:58:46;;;;;;;0.50;0.50;;;;;;;;;;5069843;28;20209;-62
2022/02/03 21:01:26;;;;;;;0.50;0.50;;;;;;;;;;5072125;28;20195;-62
2022/02/03 21:03:59;;;;;;;0.50;0.50;;;;;;;;;;5072286;28;20241;-62
2022/02/03 21:06:25;;;;;;;0.50;0.50;;;;;;;;;;5072868;28;20536;-62
2022/02/03 21:08:51;;;;;;;0.50;0.50;;;;;;;;;;5069503;28;20236;-61
2022/02/03 21:11:18;;;;;;;0.50;0.50;;;;;;;;;;5062120;28;20437;-62
2022/02/03 21:13:44;;;;;;;0.50;0.50;;;;;;;;;;5061499;28;20171;-61
2022/02/03 21:16:10;;;;;;;0.50;0.50;;;;;;;;;;5043370;28;20644;-62
2022/02/03 21:18:40;;;;;;;0.50;0.50;;;;;;;;;;5062844;28;20178;-62
2022/02/03 21:21:07;;;;;;;0.50;0.50;;;;;;;;;;5061385;28;20282;-62
2022/02/03 21:23:33;;;;;;;0.50;0.50;;;;;;;;;;5061220;28;20653;-61
2022/02/03 21:26:01;;;;;;;0.50;0.50;;;;;;;;;;5061981;28;20166;-63
2022/02/03 21:28:33;;;;;;;0.60;0.60;;;;;;;;;;5099754;23;20179;-62
2022/02/03 21:31:00;;;;;;;0.50;0.50;;;;;;;;;;5046417;28;20286;-63
2022/02/03 21:33:28;;;;;;;0.50;0.50;;;;;;;;;;5033609;28;20228;-61
2022/02/03 21:35:57;;;;;;;0.50;0.50;;;;;;;;;;5033258;28;20179;-63
2022/02/03 21:38:23;;;;;;;0.50;0.50;;;;;;;;;;5049804;28;20203;-62
2022/02/03 21:40:50;;;;;;;0.50;0.50;;;;;;;;;;5030997;28;20279;-63
2022/02/03 21:43:15;;;;;;;0.40;0.40;;;;;;;;;;5031491;28;20175;-63
2022/02/03 21:45:42;;;;;;;0.50;0.50;;;;;;;;;;5022310;28;20181;-63
2022/02/03 21:48:08;;;;;;;0.40;0.40;;;;;;;;;;5002877;28;20414;-61
2022/02/03 21:50:38;;;;;;;0.50;0.50;;;;;;;;;;5021901;28;20206;-63
2022/02/03 21:53:11;;;;;;;0.40;0.40;;;;;;;;;;5021549;28;20256;-62
2022/02/03 21:55:37;;;;;;;0.50;0.50;;;;;;;;;;5020502;28;20181;-63
2022/02/03 21:58:03;;;;;;;0.50;0.50;;;;;;;;;;5021404;28;20195;-63
2022/02/03 22:00:30;;;;;;;0.40;0.40;;;;;;;;;;5021296;28;20204;-62
2022/02/03 22:02:56;;;;;;;0.40;0.40;;;;;;;;;;5002552;28;20223;-62
2022/02/03 22:05:22;;;;;;;0.40;0.40;;;;;;;;;;5021982;28;20180;-63
2022/02/03 22:07:48;;;;;;;0.50;0.50;;;;;;;;;;5021705;28;20422;-63
2022/02/03 22:10:15;;;;;;;0.40;0.40;;;;;;;;;;5019053;28;20466;-62
2022/02/03 22:12:41;;;;;;;0.40;0.40;;;;;;;;;;5021740;28;20283;-62
2022/02/03 22:15:08;;;;;;;0.50;0.50;;;;;;;;;;5021552;28;20215;-63
2022/02/03 22:17:34;;;;;;;0.40;0.40;;;;;;;;;;5020211;28;20424;-62
2022/02/03 22:20:05;;;;;;;0.40;0.40;;;;;;;;;;5021572;28;20674;-62
2022/02/03 22:25:16;;;;;;;0.50;0.50;;;;;;;;;;5030894;28;20543;-63
2022/02/03 22:44:07;;;;;;;0.50;0.50;;;;;;;;;;5031224;28;20176;-62
2022/02/03 22:48:59;;;;;;;0.50;0.50;;;;;;;;;;5032146;28;20288;-62
2022/02/03 22:51:25;;;;;;;0.40;0.40;;;;;;;;;;5034726;28;20431;-62
2022/02/03 22:53:51;;;;;;;0.40;0.40;;;;;;;;;;5034806;28;20205;-62
2022/02/03 22:56:18;;;;;;;0.50;0.50;;;;;;;;;;5034938;28;20205;-63
2022/02/03 23:01:13;;;;;;;0.45;0.45;;;;;;;;;;5034599;28;20663;-62
2022/02/03 23:03:42;;;;;;;0.50;0.50;;;;;;;;;;5034587;28;20187;-63
2022/02/03 23:06:08;;;;;;;0.40;0.40;;;;;;;;;;5034561;28;20174;-62
2022/02/03 23:19:16;;;;;;;0.50;0.50;;;;;;;;;;5034122;28;20680;-63
2022/02/03 23:21:53;;;;;;;0.50;0.50;;;;;;;;;;5034226;28;20179;-63
2022/02/03 23:24:20;;;;;;;0.40;0.40;;;;;;;;;;5034273;28;20632;-62
2022/02/03 23:26:54;;;;;;;0.50;0.50;;;;;;;;;;5034216;28;20180;-63
2022/02/03 23:29:21;;;;;;;0.50;0.50;;;;;;;;;;5033906;28;20212;-62
2022/02/03 23:32:04;;;;;;;0.50;0.50;;;;;;;;;;5033910;28;20631;-63
2022/02/03 23:34:30;;;;;;;0.40;0.40;;;;;;;;;;5032364;28;20172;-63
2022/02/03 23:36:56;;;;;;;0.40;0.40;;;;;;;;;;5034003;28;20180;-63
2022/02/03 23:39:31;;;;;;;0.50;0.50;;;;;;;;;;5033803;28;20523;-63
2022/02/03 23:44:58;;;;;;;0.50;0.50;;;;;;;;;;5034090;28;20180;-63
